createdAt,value
2022-11-21T00:02:11.194Z,7.06
2022-11-21T00:05:12.595Z,6.90
2022-11-21T00:08:17.114Z,7.01
2022-11-21T00:11:18.595Z,6.82
2022-11-21T00:14:20.027Z,6.97
2022-11-21T00:17:21.442Z,7.19
2022-11-21T00:20:22.888Z,7.09
2022-11-21T00:23:28.187Z,7.18
2022-11-21T00:26:29.595Z,7.22
2022-11-21T00:29:31.003Z,7.24
2022-11-21T00:32:32.407Z,7.27
2022-11-21T00:35:33.816Z,7.13
2022-11-21T00:38:35.742Z,7.35
2022-11-21T00:41:37.139Z,7.28
2022-11-21T00:44:38.525Z,7.18
2022-11-21T00:47:39.956Z,7.24
2022-11-21T00:50:41.394Z,7.15
2022-11-21T00:53:42.840Z,7.13
2022-11-21T00:56:44.257Z,7.24
2022-11-21T00:59:45.651Z,7.21
2022-11-21T01:02:47.050Z,7.20
2022-11-21T01:05:48.506Z,7.23
2022-11-21T01:08:49.910Z,7.39
2022-11-21T01:11:51.376Z,7.37
2022-11-21T01:14:52.885Z,7.20
2022-11-21T01:17:54.267Z,7.03
2022-11-21T01:21:00.212Z,7.08
2022-11-21T01:24:02.682Z,7.26
2022-11-21T01:27:04.084Z,7.25
2022-11-21T01:30:06.058Z,7.37
2022-11-21T01:33:07.471Z,7.23
2022-11-21T01:36:30.749Z,6.76
2022-11-21T01:39:32.190Z,7.00
2022-11-21T01:43:04.542Z,7.12
2022-11-21T01:46:13.835Z,7.13
2022-11-21T01:49:30.584Z,6.97
2022-11-21T01:52:32.676Z,6.93
2022-11-21T01:55:34.748Z,6.90
2022-11-21T01:58:38.716Z,6.96
2022-11-21T02:01:43.337Z,6.93
2022-11-21T02:04:45.572Z,7.03
2022-11-21T02:07:49.243Z,7.07
2022-11-21T02:11:14.136Z,6.98
2022-11-21T02:14:15.839Z,7.01
2022-11-21T02:17:20.383Z,7.15
2022-11-21T02:20:27.974Z,7.23
2022-11-21T02:23:44.215Z,7.18
2022-11-21T02:26:48.133Z,7.08
2022-11-21T02:29:49.540Z,7.03
2022-11-21T02:32:50.938Z,7.23
2022-11-21T02:35:59.691Z,7.08
2022-11-21T02:39:01.511Z,7.13
2022-11-21T02:42:14.983Z,7.21
2022-11-21T02:45:22.675Z,7.25
2022-11-21T02:48:24.304Z,6.94
2022-11-21T02:51:25.713Z,7.25
2022-11-21T02:54:27.367Z,7.30
2022-11-21T02:57:29.068Z,7.20
2022-11-21T03:00:30.604Z,7.23
2022-11-21T03:03:31.996Z,7.39
2022-11-21T03:06:33.451Z,7.30
2022-11-21T03:09:34.916Z,7.46
2022-11-21T03:12:40.652Z,7.32
2022-11-21T03:15:42.043Z,7.43
2022-11-21T03:18:43.463Z,7.48
2022-11-21T03:21:44.901Z,7.46
2022-11-21T03:24:46.370Z,7.39
2022-11-21T03:27:52.123Z,7.39
2022-11-21T03:30:53.517Z,7.28
2022-11-21T03:33:54.916Z,7.38
2022-11-21T03:36:56.346Z,7.33
2022-11-21T03:39:57.752Z,7.59
2022-11-21T03:43:05.280Z,7.60
2022-11-21T03:46:06.696Z,7.56
2022-11-21T03:49:08.870Z,7.49
2022-11-21T03:52:10.274Z,7.38
2022-11-21T03:55:11.745Z,7.61
2022-11-21T03:58:13.175Z,7.47
2022-11-21T04:01:15.519Z,7.52
2022-11-21T04:04:16.913Z,7.59
2022-11-21T04:07:18.368Z,7.55
2022-11-21T04:10:20.840Z,6.96
2022-11-21T04:13:22.244Z,6.86
2022-11-21T04:16:23.636Z,7.02
2022-11-21T04:19:25.045Z,6.97
2022-11-21T04:22:26.516Z,6.85
2022-11-21T04:25:27.916Z,7.24
2022-11-21T04:28:29.589Z,7.34
2022-11-21T04:31:31.005Z,7.44
2022-11-21T04:34:32.446Z,7.33
2022-11-21T04:37:33.844Z,7.02
2022-11-21T04:40:36.050Z,7.17
2022-11-21T04:43:37.482Z,7.05
2022-11-21T04:46:38.892Z,6.92
2022-11-21T04:49:40.371Z,7.04
2022-11-21T04:52:41.997Z,7.15
2022-11-21T04:55:43.411Z,7.34
2022-11-21T04:58:45.037Z,7.31
2022-11-21T05:01:46.509Z,7.24
2022-11-21T05:04:48.240Z,7.03
2022-11-21T05:07:49.639Z,7.26
2022-11-21T05:11:09.765Z,7.32
2022-11-21T05:14:11.207Z,7.21
2022-11-21T05:17:12.601Z,7.32
2022-11-21T05:20:15.062Z,7.29
2022-11-21T05:23:16.535Z,7.27
2022-11-21T05:26:17.930Z,7.33
2022-11-21T05:29:22.654Z,7.32
2022-11-21T05:32:26.635Z,7.18
2022-11-21T05:35:28.067Z,7.37
2022-11-21T05:38:29.455Z,7.28
2022-11-21T05:41:30.875Z,7.21
2022-11-21T05:44:32.291Z,7.34
2022-11-21T05:47:33.761Z,7.22
2022-11-21T05:50:38.162Z,7.23
2022-11-21T05:53:39.572Z,7.28
2022-11-21T05:56:41.075Z,7.24
2022-11-21T05:59:42.468Z,7.38
2022-11-21T06:03:16.091Z,7.25
2022-11-21T06:06:22.173Z,7.08
2022-11-21T06:09:26.185Z,7.25
2022-11-21T06:12:27.578Z,7.25
2022-11-21T06:15:29.388Z,7.18
2022-11-21T06:18:33.640Z,7.39
2022-11-21T06:21:37.197Z,7.34
2022-11-21T06:24:38.600Z,7.39
2022-11-21T06:27:40.047Z,7.34
2022-11-21T06:30:41.429Z,7.32
2022-11-21T06:33:43.904Z,7.34
2022-11-21T06:36:45.821Z,7.38
2022-11-21T06:39:48.654Z,7.31
2022-11-21T06:42:50.131Z,7.36
2022-11-21T06:45:51.564Z,7.37
2022-11-21T06:48:53.767Z,7.38
2022-11-21T06:51:55.215Z,7.36
2022-11-21T06:54:56.628Z,7.34
2022-11-21T06:57:59.645Z,7.24
2022-11-21T07:01:05.834Z,7.23
2022-11-21T07:04:07.256Z,7.24
2022-11-21T07:07:08.718Z,7.21
2022-11-21T07:10:10.417Z,7.29
2022-11-21T07:13:23.659Z,7.28
2022-11-21T07:16:26.215Z,7.25
2022-11-21T07:19:28.133Z,7.27
2022-11-21T07:22:29.759Z,7.37
2022-11-21T07:25:36.302Z,7.30
2022-11-21T07:28:38.245Z,7.39
2022-11-21T07:31:39.675Z,7.43
2022-11-21T07:34:41.169Z,7.49
2022-11-21T07:37:42.620Z,7.67
2022-11-21T07:40:44.158Z,7.74
2022-11-21T07:43:45.605Z,7.68
2022-11-21T07:46:46.991Z,7.68
2022-11-21T07:49:48.414Z,7.80
2022-11-21T07:52:49.820Z,7.59
2022-11-21T07:55:51.238Z,7.90
2022-11-21T07:58:53.085Z,7.99
2022-11-21T08:01:54.550Z,8.05
2022-11-21T08:04:56.036Z,8.07
2022-11-21T08:07:57.431Z,8.12
2022-11-21T08:10:58.834Z,8.23
2022-11-21T08:14:00.240Z,8.09
2022-11-21T08:17:01.851Z,8.04
2022-11-21T08:20:04.277Z,8.13
2022-11-21T08:23:06.481Z,8.03
2022-11-21T08:26:10.053Z,8.03
2022-11-21T08:29:12.541Z,8.12
2022-11-21T08:32:14.646Z,8.03
2022-11-21T08:35:16.054Z,7.98
2022-11-21T08:38:17.586Z,7.91
2022-11-21T08:41:37.659Z,7.95
2022-11-21T08:44:39.565Z,7.97
2022-11-21T08:47:41.368Z,8.06
2022-11-21T08:50:42.835Z,7.94
2022-11-21T08:53:44.210Z,8.13
2022-11-21T08:56:45.799Z,8.14
2022-11-21T08:59:47.343Z,8.14
2022-11-21T09:02:48.710Z,8.23
2022-11-21T09:05:50.106Z,8.45
2022-11-21T09:08:51.627Z,8.85
2022-11-21T09:11:53.234Z,9.27
2022-11-21T09:15:13.485Z,8.86
2022-11-21T09:18:14.878Z,8.66
2022-11-21T09:21:17.390Z,8.49
2022-11-21T09:24:19.410Z,8.53
2022-11-21T09:27:20.824Z,8.65
2022-11-21T09:30:22.267Z,8.76
2022-11-21T09:33:23.659Z,8.85
2022-11-21T09:36:25.096Z,8.69
2022-11-21T09:39:26.759Z,9.27
2022-11-21T09:42:57.250Z,9.34
2022-11-21T09:46:06.058Z,9.72
2022-11-21T09:49:12.296Z,9.98
2022-11-21T09:52:17.531Z,10.21
2022-11-21T09:55:40.993Z,10.27
2022-11-21T09:58:47.475Z,10.38
2022-11-21T10:01:48.945Z,10.13
2022-11-21T10:04:52.003Z,10.20
2022-11-21T10:07:58.614Z,10.75
2022-11-21T10:11:20.469Z,10.83
2022-11-21T10:14:27.942Z,10.69
2022-11-21T10:17:48.338Z,10.86
2022-11-21T10:20:56.732Z,11.14
2022-11-21T10:24:20.059Z,10.97
2022-11-21T10:27:31.638Z,11.01
2022-11-21T10:30:33.527Z,11.27
2022-11-21T10:33:40.192Z,11.11
2022-11-21T10:36:47.668Z,10.95
2022-11-21T10:39:51.107Z,10.66
2022-11-21T10:43:20.728Z,10.57
2022-11-21T10:46:22.156Z,10.34
2022-11-21T10:49:29.844Z,10.32
2022-11-21T10:52:35.309Z,9.98
2022-11-21T10:55:55.498Z,9.75
2022-11-21T10:58:59.192Z,10.12
2022-11-21T11:02:12.852Z,10.04
2022-11-21T11:05:18.077Z,10.15
2022-11-21T11:08:19.481Z,10.02
2022-11-21T11:11:22.499Z,9.84
2022-11-21T11:14:33.343Z,9.98
2022-11-21T11:17:34.767Z,10.24
2022-11-21T11:20:45.003Z,10.19
2022-11-21T11:23:48.441Z,10.31
2022-11-21T11:26:51.625Z,9.85
2022-11-21T11:29:53.245Z,10.18
2022-11-21T11:32:54.905Z,10.18
2022-11-21T11:36:36.837Z,10.42
2022-11-21T11:39:46.246Z,10.57
2022-11-21T11:43:17.301Z,10.41
2022-11-21T11:46:44.599Z,10.38
2022-11-21T11:50:11.354Z,10.51
2022-11-21T11:53:22.958Z,10.08
2022-11-21T11:56:37.930Z,10.52
2022-11-21T11:59:45.349Z,10.36
2022-11-21T12:03:00.123Z,10.30
2022-11-21T12:10:33.666Z,10.70
2022-11-21T12:13:37.093Z,10.23
2022-11-21T12:16:41.210Z,10.33
2022-11-21T12:19:42.708Z,10.37
2022-11-21T12:22:47.149Z,10.32
2022-11-21T12:25:57.857Z,10.25
2022-11-21T12:29:24.145Z,10.15
2022-11-21T12:32:40.837Z,10.06
2022-11-21T12:36:16.742Z,10.72
2022-11-21T12:39:44.962Z,10.19
2022-11-21T12:43:05.227Z,10.08
2022-11-21T12:46:20.581Z,10.13
2022-11-21T12:50:11.255Z,10.53
2022-11-21T12:54:10.857Z,10.03
2022-11-21T12:57:21.013Z,10.08
2022-11-21T13:00:29.307Z,10.06
2022-11-21T13:03:39.829Z,10.46
2022-11-21T13:06:44.357Z,10.12
2022-11-21T13:09:49.074Z,10.47
2022-11-21T13:13:02.715Z,10.07
2022-11-21T13:16:12.676Z,10.41
2022-11-21T13:19:17.190Z,10.53
2022-11-21T13:22:36.931Z,10.58
2022-11-21T13:25:40.390Z,10.33
2022-11-21T13:28:46.184Z,10.50
2022-11-21T13:31:48.111Z,10.44
2022-11-21T13:34:49.637Z,10.36
2022-11-21T13:38:08.523Z,10.35
2022-11-21T13:41:33.120Z,10.48
2022-11-21T13:44:41.391Z,10.39
2022-11-21T13:48:03.517Z,10.21
2022-11-21T13:51:07.656Z,10.07
2022-11-21T13:54:42.211Z,10.12
2022-11-21T13:58:02.516Z,10.42
2022-11-21T14:01:45.603Z,10.37
2022-11-21T14:05:13.170Z,10.38
2022-11-21T14:08:17.990Z,10.41
2022-11-21T14:11:40.105Z,10.30
2022-11-21T14:14:51.701Z,9.93
2022-11-21T14:17:58.318Z,10.14
2022-11-21T14:21:01.574Z,10.13
2022-11-21T14:24:13.346Z,10.24
2022-11-21T14:27:25.597Z,10.16
2022-11-21T14:30:30.115Z,10.03
2022-11-21T14:33:36.425Z,10.00
2022-11-21T14:36:38.591Z,10.12
2022-11-21T14:39:44.517Z,9.97
2022-11-21T14:42:47.114Z,9.94
2022-11-21T14:45:49.522Z,9.90
2022-11-21T14:48:52.363Z,9.92
2022-11-21T14:51:58.948Z,9.97
2022-11-21T14:58:28.280Z,9.69
2022-11-21T15:01:31.791Z,9.65
2022-11-21T15:04:36.129Z,9.33
2022-11-21T15:07:43.644Z,9.47
2022-11-21T15:10:45.663Z,9.51
2022-11-21T15:17:18.760Z,9.47
2022-11-21T15:20:21.053Z,8.86
2022-11-21T15:23:26.656Z,9.00
2022-11-21T15:26:33.800Z,8.89
2022-11-21T15:29:35.200Z,8.95
2022-11-21T15:32:59.679Z,8.96
2022-11-21T15:36:14.997Z,8.98
2022-11-21T15:39:22.359Z,8.87
2022-11-21T15:42:33.500Z,8.70
2022-11-21T15:45:35.023Z,8.77
2022-11-21T15:48:36.696Z,8.56
2022-11-21T15:55:13.581Z,8.54
2022-11-21T15:58:17.584Z,8.55
2022-11-21T16:01:21.863Z,8.32
2022-11-21T16:04:25.996Z,8.15
2022-11-21T16:07:27.761Z,8.27
2022-11-21T16:10:29.298Z,8.22
2022-11-21T16:13:30.788Z,8.35
2022-11-21T16:16:41.489Z,8.80
2022-11-21T16:19:45.507Z,8.91
2022-11-21T16:22:47.969Z,8.81
2022-11-21T16:25:54.255Z,8.82
2022-11-21T16:28:56.731Z,8.69
2022-11-21T16:31:58.187Z,8.76
2022-11-21T16:34:59.889Z,8.77
2022-11-21T16:38:01.272Z,8.22
2022-11-21T16:41:06.843Z,8.19
2022-11-21T16:44:15.907Z,8.44
2022-11-21T16:47:17.291Z,8.42
2022-11-21T16:50:18.795Z,8.42
2022-11-21T16:53:20.241Z,8.28
2022-11-21T16:56:21.698Z,8.32
2022-11-21T16:59:23.176Z,8.12
2022-11-21T17:02:24.636Z,7.87
2022-11-21T17:05:26.285Z,7.97
2022-11-21T17:08:28.556Z,8.29
2022-11-21T17:11:31.330Z,8.35
2022-11-21T17:14:32.789Z,8.38
2022-11-21T17:17:34.431Z,8.49
2022-11-21T17:20:35.859Z,8.48
2022-11-21T17:23:40.451Z,8.60
2022-11-21T17:26:41.853Z,8.66
2022-11-21T17:29:43.361Z,8.68
2022-11-21T17:32:44.909Z,8.71
2022-11-21T17:35:46.332Z,8.78
2022-11-21T17:38:48.387Z,8.74
2022-11-21T17:41:49.925Z,8.68
2022-11-21T17:44:51.408Z,8.52
2022-11-21T17:47:52.916Z,8.10
2022-11-21T17:51:16.321Z,8.33
2022-11-21T17:54:18.648Z,8.62
2022-11-21T17:57:20.070Z,8.69
2022-11-21T18:00:21.583Z,8.67
2022-11-21T18:03:23.664Z,8.67
2022-11-21T18:06:28.142Z,8.64
2022-11-21T18:09:29.813Z,8.54
2022-11-21T18:12:31.534Z,8.26
2022-11-21T18:15:33.777Z,8.45
2022-11-21T18:18:36.942Z,8.56
2022-11-21T18:21:38.494Z,8.40
2022-11-21T18:24:39.902Z,8.60
2022-11-21T18:27:41.404Z,8.71
2022-11-21T18:30:42.809Z,8.84
2022-11-21T18:33:44.797Z,8.70
2022-11-21T18:36:47.618Z,8.75
2022-11-21T18:39:49.108Z,8.70
2022-11-21T18:42:51.926Z,8.64
2022-11-21T18:45:53.369Z,8.54
2022-11-21T18:49:02.772Z,7.73
2022-11-21T18:52:06.078Z,8.24
2022-11-21T18:55:07.903Z,8.35
2022-11-21T18:58:09.655Z,8.53
2022-11-21T19:01:22.531Z,8.52
2022-11-21T19:04:25.542Z,8.41
2022-11-21T19:07:27.125Z,8.24
2022-11-21T19:10:42.749Z,8.38
2022-11-21T19:13:45.040Z,8.64
2022-11-21T19:16:46.466Z,8.56
2022-11-21T19:19:48.478Z,8.42
2022-11-21T19:22:50.144Z,8.61
2022-11-21T19:25:51.571Z,8.43
2022-11-21T19:28:53.131Z,8.55
2022-11-21T19:31:55.722Z,8.50
2022-11-21T19:34:57.180Z,8.32
2022-11-21T19:37:58.788Z,8.54
2022-11-21T19:41:15.794Z,8.39
2022-11-21T19:44:17.196Z,8.44
2022-11-21T19:47:18.619Z,8.20
2022-11-21T19:50:20.335Z,8.29
2022-11-21T19:53:21.773Z,7.98
2022-11-21T19:56:25.086Z,8.04
2022-11-21T19:59:27.502Z,7.98
2022-11-21T20:02:29.641Z,8.21
2022-11-21T20:05:31.072Z,8.22
2022-11-21T20:08:32.902Z,7.92
2022-11-21T20:11:35.266Z,8.24
2022-11-21T20:14:36.635Z,8.14
2022-11-21T20:17:38.078Z,8.26
2022-11-21T20:20:39.583Z,7.88
2022-11-21T20:23:41.499Z,7.87
2022-11-21T20:26:44.101Z,8.07
2022-11-21T20:29:45.512Z,8.16
2022-11-21T20:32:47.017Z,8.15
2022-11-21T20:35:48.418Z,8.14
2022-11-21T20:38:55.064Z,7.93
2022-11-21T20:41:56.542Z,7.84
2022-11-21T20:45:54.267Z,7.94
2022-11-21T20:48:20.582Z,8.01
2022-11-21T20:54:44.332Z,7.87
2022-11-21T20:57:45.778Z,7.89
2022-11-21T21:00:47.163Z,7.89
2022-11-21T21:03:48.582Z,7.90
2022-11-21T21:06:49.989Z,7.99
2022-11-21T21:09:51.647Z,8.02
2022-11-21T21:12:53.395Z,8.02
2022-11-21T21:15:54.907Z,7.95
2022-11-21T21:18:56.931Z,7.88
2022-11-21T21:21:58.401Z,7.99
2022-11-21T21:24:59.846Z,8.01
2022-11-21T21:28:01.433Z,7.98
2022-11-21T21:31:08.073Z,8.01
2022-11-21T21:34:10.006Z,8.02
2022-11-21T21:37:11.511Z,8.04
2022-11-21T21:40:12.951Z,8.07
2022-11-21T21:43:14.338Z,7.99
2022-11-21T21:46:17.666Z,8.05
2022-11-21T21:49:19.119Z,7.94
2022-11-21T21:52:20.570Z,7.74
2022-11-21T21:55:21.991Z,7.98
2022-11-21T21:58:23.395Z,7.89
2022-11-21T22:01:29.639Z,7.92
2022-11-21T22:04:33.060Z,8.07
2022-11-21T22:07:34.617Z,8.06
2022-11-21T22:10:36.086Z,8.12
2022-11-21T22:13:38.770Z,8.06
2022-11-21T22:16:41.439Z,8.00
2022-11-21T22:19:43.236Z,7.83
2022-11-21T22:22:45.882Z,7.58
2022-11-21T22:25:47.407Z,8.07
2022-11-21T22:28:48.878Z,8.20
2022-11-21T22:31:50.892Z,8.27
2022-11-21T22:34:52.538Z,8.18
2022-11-21T22:37:53.945Z,8.27
2022-11-21T22:41:13.645Z,8.12
2022-11-21T22:44:15.117Z,8.25
2022-11-21T22:47:16.583Z,8.22
2022-11-21T22:50:17.964Z,8.35
2022-11-21T22:53:19.469Z,8.40
2022-11-21T22:56:23.381Z,8.35
2022-11-21T22:59:24.825Z,8.35
2022-11-21T23:02:26.273Z,8.47
2022-11-21T23:05:27.688Z,8.43
2022-11-21T23:08:30.805Z,8.28
2022-11-21T23:11:39.245Z,8.38
2022-11-21T23:14:41.955Z,8.50
2022-11-21T23:17:46.056Z,8.32
2022-11-21T23:20:49.969Z,8.44
2022-11-21T23:23:51.542Z,8.40
2022-11-21T23:26:52.961Z,8.39
2022-11-21T23:29:54.351Z,8.49
2022-11-21T23:32:55.762Z,8.45
2022-11-21T23:35:57.200Z,8.45
2022-11-21T23:38:58.616Z,8.55
2022-11-21T23:42:00.029Z,8.55
2022-11-21T23:45:01.430Z,8.47
2022-11-21T23:48:02.887Z,8.39
2022-11-21T23:51:04.309Z,8.40
2022-11-21T23:54:05.735Z,8.29
2022-11-21T23:57:07.201Z,8.34
